Time;durP1;ratioP1;P1;durP2;ratioP2;P2;SDS_P1;SDS_P2;PMS_P1;PMS_P2;Temp;Humidity;BMP_temperature;BMP_pressure;BME280_temperature;BME280_humidity;BME280_pressure;Samples;Min_cycle;Max_cycle;Signal;HPM_P1;HPM_P2
2021/03/11 00:00:53;;;;;;;19.93;13.07;;;4.60;99.90;;;-141.85;100.00;63675.41;5047688;28;20235;-68
2021/03/11 00:03:24;;;;;;;20.93;13.90;;;4.70;99.90;;;-141.85;100.00;63675.41;5044478;28;20682;-68
2021/03/11 00:05:51;;;;;;;18.80;12.77;;;4.80;99.90;;;-141.85;100.00;63675.41;5051809;28;20202;-68
2021/03/11 00:08:19;;;;;;;20.40;13.47;;;4.80;99.90;;;-141.85;100.00;63675.41;5036644;28;20725;-68
2021/03/11 00:10:47;;;;;;;21.63;13.00;;;4.80;99.90;;;-141.85;100.00;63675.41;5035021;28;20204;-68
2021/03/11 00:13:14;;;;;;;21.23;13.23;;;4.90;99.90;;;-141.85;100.00;63675.41;5032246;28;20254;-68
2021/03/11 00:15:44;;;;;;;19.47;12.77;;;4.90;99.90;;;-141.85;100.00;63675.41;5032196;28;20852;-68
2021/03/11 00:18:13;;;;;;;19.23;12.50;;;4.90;99.90;;;-141.85;100.00;63675.41;5032133;28;20235;-68
2021/03/11 00:20:41;;;;;;;18.80;11.93;;;5.00;99.90;;;-141.85;100.00;63675.41;5032258;28;20207;-69
2021/03/11 00:23:10;;;;;;;19.13;12.90;;;4.90;99.90;;;-141.85;100.00;63675.41;5032292;28;20221;-69
2021/03/11 00:25:38;;;;;;;20.93;13.47;;;4.80;99.90;;;-141.85;100.00;63675.41;5034320;28;20247;-69
2021/03/11 00:28:06;;;;;;;20.07;12.60;;;4.80;99.90;;;-141.85;100.00;63675.41;5035601;28;20253;-68
2021/03/11 00:30:33;;;;;;;17.83;12.23;;;4.80;99.90;;;-141.85;100.00;63675.41;5036002;28;20298;-67
2021/03/11 00:33:00;;;;;;;20.13;13.00;;;4.80;99.90;;;-141.85;100.00;63675.41;5035739;28;20508;-68
2021/03/11 00:35:28;;;;;;;20.47;13.37;;;4.80;99.90;;;-141.85;100.00;63675.41;5035440;28;20230;-68
2021/03/11 00:37:55;;;;;;;19.07;12.67;;;4.80;99.90;;;-141.85;100.00;63675.41;5035665;28;20204;-69
2021/03/11 00:40:23;;;;;;;19.93;12.83;;;4.90;99.90;;;-141.85;100.00;63675.41;5035570;28;20260;-69
2021/03/11 00:42:51;;;;;;;22.20;12.90;;;4.90;99.90;;;-141.85;100.00;63675.41;5035350;28;20319;-68
2021/03/11 00:45:19;;;;;;;19.80;12.27;;;5.00;99.90;;;-141.85;100.00;63675.41;5035641;28;20335;-69
2021/03/11 00:47:46;;;;;;;19.53;12.20;;;5.10;99.90;;;-141.85;100.00;63675.41;5035767;28;20206;-69
2021/03/11 00:50:17;;;;;;;20.43;12.60;;;5.10;99.90;;;-141.85;100.00;63675.41;5034773;28;20574;-68
2021/03/11 00:52:44;;;;;;;20.67;13.20;;;5.00;99.90;;;-141.85;100.00;63675.41;5035215;28;20664;-69
2021/03/11 00:55:13;;;;;;;21.13;12.63;;;5.00;99.90;;;-141.85;100.00;63675.41;5035198;28;20296;-68
2021/03/11 00:57:41;;;;;;;18.80;12.77;;;5.00;99.90;;;-141.85;100.00;63675.41;5035110;28;20298;-68
2021/03/11 01:00:13;;;;;;;18.70;12.80;;;5.10;99.90;;;-141.85;100.00;63675.41;5035475;28;20282;-67
2021/03/11 01:02:40;;;;;;;19.70;12.67;;;5.20;99.90;;;-141.85;100.00;63675.41;5035024;28;20304;-67
2021/03/11 01:05:09;;;;;;;21.53;12.67;;;5.20;99.90;;;-141.85;100.00;63675.41;5035025;28;20283;-68
2021/03/11 01:07:36;;;;;;;18.17;12.00;;;5.20;99.90;;;-141.85;100.00;63675.41;5034928;28;20286;-68
2021/03/11 01:10:05;;;;;;;18.37;12.80;;;5.20;99.90;;;-141.85;100.00;63675.41;5035155;28;20285;-68
2021/03/11 01:12:32;;;;;;;19.40;12.47;;;5.30;99.90;;;-141.85;100.00;63675.41;5035264;28;20629;-67
2021/03/11 01:14:59;;;;;;;19.40;12.10;;;5.40;99.90;;;-141.85;100.00;63675.41;5035106;28;20199;-67
2021/03/11 01:17:27;;;;;;;21.37;13.70;;;5.50;99.90;;;-141.85;100.00;63675.41;5035187;28;20321;-68
2021/03/11 01:19:56;;;;;;;17.97;11.87;;;5.50;99.90;;;-141.85;100.00;63675.41;5034751;28;20231;-68
2021/03/11 01:22:23;;;;;;;17.17;11.87;;;5.50;99.90;;;-141.85;100.00;63675.41;5034739;28;20738;-68
2021/03/11 01:24:50;;;;;;;18.20;12.30;;;5.50;99.90;;;-141.85;100.00;63675.41;5034929;28;20287;-68
2021/03/11 01:27:17;;;;;;;20.53;12.47;;;5.50;99.90;;;-141.85;100.00;63675.41;5034713;28;20718;-67
2021/03/11 01:29:44;;;;;;;20.67;12.53;;;5.60;99.90;;;-141.85;100.00;63675.41;5034681;28;20332;-68
2021/03/11 01:32:12;;;;;;;20.67;12.83;;;5.50;99.90;;;-141.85;100.00;63675.41;5034805;28;20213;-68
2021/03/11 01:34:40;;;;;;;18.83;12.23;;;5.50;99.90;;;-141.85;100.00;63675.41;5037035;28;20206;-68
2021/03/11 01:37:07;;;;;;;21.60;12.93;;;5.50;99.90;;;-141.85;100.00;63675.41;5054293;28;20730;-67
2021/03/11 01:39:34;;;;;;;20.37;12.93;;;5.60;99.90;;;-141.85;100.00;63675.41;5054260;28;20204;-68
2021/03/11 01:42:01;;;;;;;20.27;12.83;;;5.60;99.90;;;-141.85;100.00;63675.41;5054570;28;20265;-67
2021/03/11 01:44:28;;;;;;;20.83;13.97;;;5.70;99.90;;;-141.85;100.00;63675.41;5054488;28;20209;-68
2021/03/11 01:46:55;;;;;;;19.03;11.90;;;5.70;99.90;;;-141.85;100.00;63675.41;5054304;28;20240;-68
2021/03/11 01:49:22;;;;;;;20.43;13.33;;;5.70;99.90;;;-141.85;100.00;63675.41;5054358;28;20347;-67
2021/03/11 01:51:52;;;;;;;20.17;12.70;;;5.70;99.90;;;-141.85;100.00;63675.41;5054200;28;20213;-67
2021/03/11 01:54:37;;;;;;;18.30;12.10;;;5.70;99.90;;;-141.85;100.00;63675.41;5054330;28;20183;-68
2021/03/11 01:57:05;;;;;;;20.57;12.73;;;5.70;99.90;;;-141.85;100.00;63675.41;5054044;28;20734;-67
2021/03/11 01:59:32;;;;;;;17.70;11.10;;;5.70;99.90;;;-141.85;100.00;63675.41;5054039;28;20294;-68
2021/03/11 02:02:00;;;;;;;18.17;11.43;;;5.70;99.90;;;-141.85;100.00;63675.41;5054123;28;20650;-68
2021/03/11 02:04:28;;;;;;;20.40;12.67;;;5.80;99.90;;;-141.85;100.00;63675.41;5053843;28;20206;-67
2021/03/11 02:06:59;;;;;;;21.17;12.30;;;5.80;99.90;;;-141.85;100.00;63675.41;5045609;28;20191;-68
2021/03/11 02:09:26;;;;;;;21.60;12.50;;;5.80;99.90;;;-141.85;100.00;63675.41;5034012;28;20253;-67
2021/03/11 02:12:04;;;;;;;19.27;12.00;;;5.80;99.90;;;-141.85;100.00;63675.41;5034178;28;20224;-68
2021/03/11 02:14:47;;;;;;;17.47;11.20;;;5.90;99.90;;;-141.85;100.00;63675.41;5034035;28;20211;-68
2021/03/11 02:17:20;;;;;;;18.13;11.90;;;5.90;99.90;;;-141.85;100.00;63675.41;5034167;28;20221;-68
2021/03/11 02:20:12;;;;;;;18.43;11.87;;;5.90;99.90;;;-141.85;100.00;63675.41;5033787;28;20190;-67
2021/03/11 02:23:07;;;;;;;18.77;11.70;;;5.90;99.90;;;-141.85;100.00;63675.41;5034520;28;20312;-69
2021/03/11 02:25:45;;;;;;;16.80;11.07;;;5.90;99.90;;;-141.85;100.00;63675.41;5039654;28;20219;-68
2021/03/11 02:28:26;;;;;;;17.20;11.30;;;6.00;99.90;;;-141.85;100.00;63675.41;5039864;28;20187;-68
2021/03/11 02:30:55;;;;;;;19.47;11.70;;;6.00;99.90;;;-141.85;100.00;63675.41;5033749;28;20185;-68
2021/03/11 02:33:26;;;;;;;18.33;12.07;;;6.00;99.90;;;-141.85;100.00;63675.41;5033286;28;20214;-67
2021/03/11 02:35:55;;;;;;;19.13;11.77;;;6.00;99.90;;;-141.85;100.00;63675.41;5032836;28;20323;-69
2021/03/11 02:38:25;;;;;;;18.27;11.90;;;6.00;99.90;;;-141.85;100.00;63675.41;5033528;28;20291;-68
2021/03/11 02:41:00;;;;;;;17.10;12.00;;;6.10;99.90;;;-141.85;100.00;63675.41;5033476;28;20184;-67
2021/03/11 02:43:29;;;;;;;19.67;12.53;;;6.10;99.90;;;-141.85;100.00;63675.41;5033302;28;20231;-69
2021/03/11 02:45:58;;;;;;;19.37;12.93;;;6.00;99.90;;;-141.85;100.00;63675.41;5033189;28;20737;-67
2021/03/11 02:48:27;;;;;;;17.83;12.07;;;6.00;99.90;;;-141.85;100.00;63675.41;5032831;28;20230;-68
2021/03/11 02:50:55;;;;;;;20.30;13.07;;;6.00;99.90;;;-141.85;100.00;63675.41;5033116;28;20568;-68
2021/03/11 02:53:23;;;;;;;20.00;13.10;;;6.00;99.90;;;-141.85;100.00;63675.41;5033270;28;20394;-68
2021/03/11 02:55:51;;;;;;;21.03;13.83;;;6.00;99.90;;;-141.85;100.00;63675.41;5033077;28;20199;-67
2021/03/11 02:58:19;;;;;;;21.23;13.33;;;6.00;99.90;;;-141.85;100.00;63675.41;5033113;28;20290;-68
2021/03/11 03:00:48;;;;;;;19.70;12.50;;;6.00;99.90;;;-141.85;100.00;63675.41;5033303;28;20207;-68
2021/03/11 03:03:16;;;;;;;22.30;14.13;;;5.90;99.90;;;-141.85;100.00;63675.41;5033134;28;20229;-68
2021/03/11 03:05:44;;;;;;;20.63;13.17;;;5.90;99.90;;;-141.85;100.00;63675.41;5032575;28;20689;-67
2021/03/11 03:08:12;;;;;;;21.07;12.73;;;6.00;99.90;;;-141.85;100.00;63675.41;5033028;28;20210;-67
2021/03/11 03:10:39;;;;;;;23.20;13.40;;;5.90;99.90;;;-141.85;100.00;63675.41;5032911;28;20236;-67
2021/03/11 03:13:14;;;;;;;21.13;13.47;;;5.90;99.90;;;-141.85;100.00;63675.41;5032580;28;20295;-67
2021/03/11 03:15:43;;;;;;;20.67;13.30;;;5.90;99.90;;;-141.85;100.00;63675.41;5033166;28;20188;-67
2021/03/11 03:18:14;;;;;;;23.93;14.37;;;5.90;99.90;;;-141.85;100.00;63675.41;5032996;28;20235;-67
2021/03/11 03:20:44;;;;;;;22.43;14.77;;;5.90;99.90;;;-141.85;100.00;63675.41;5032527;28;20659;-68
2021/03/11 03:23:12;;;;;;;22.63;14.27;;;5.90;99.90;;;-141.85;100.00;63675.41;5032994;28;20220;-68
2021/03/11 03:25:46;;;;;;;22.03;14.37;;;5.80;99.90;;;-141.85;100.00;63675.41;5032796;28;20709;-67
2021/03/11 03:28:14;;;;;;;23.00;14.53;;;5.80;99.90;;;-141.85;100.00;63675.41;5032712;28;20243;-67
2021/03/11 03:30:42;;;;;;;22.63;15.10;;;5.70;99.90;;;-141.85;100.00;63675.41;5032549;28;20680;-67
2021/03/11 03:33:10;;;;;;;20.63;14.20;;;5.70;99.90;;;-141.85;100.00;63675.41;5032782;28;20633;-67
2021/03/11 03:35:39;;;;;;;22.47;14.77;;;5.70;99.90;;;-141.85;100.00;63675.41;5042615;28;20319;-68
2021/03/11 03:38:09;;;;;;;23.53;14.40;;;5.70;99.90;;;-141.85;100.00;63675.41;5052643;28;20195;-67
2021/03/11 03:40:36;;;;;;;23.10;14.33;;;5.80;99.90;;;-141.85;100.00;63675.41;5052536;28;20232;-67
2021/03/11 03:43:12;;;;;;;22.30;14.50;;;5.70;99.90;;;-141.85;100.00;63675.41;5052419;28;20251;-67
2021/03/11 03:45:44;;;;;;;21.80;14.40;;;5.80;99.90;;;-141.85;100.00;63675.41;5052652;28;20179;-67
2021/03/11 03:48:18;;;;;;;22.37;13.60;;;6.00;99.90;;;-141.85;100.00;63675.41;5052400;28;20186;-67
2021/03/11 03:50:48;;;;;;;22.60;15.13;;;6.10;99.90;;;-141.85;100.00;63675.41;5052414;28;20197;-68
2021/03/11 03:53:21;;;;;;;23.50;13.90;;;6.10;99.90;;;-141.85;100.00;63675.41;5052649;28;20211;-68
2021/03/11 03:56:15;;;;;;;21.43;14.27;;;6.10;99.90;;;-141.85;100.00;63675.41;5052532;28;20203;-67
2021/03/11 03:58:45;;;;;;;25.17;14.90;;;6.00;99.90;;;-141.85;100.00;63675.41;5052324;28;20215;-67
2021/03/11 04:01:15;;;;;;;23.37;14.27;;;6.00;99.90;;;-141.85;100.00;63675.41;5056049;28;20204;-67
2021/03/11 04:03:42;;;;;;;23.43;15.47;;;6.00;99.90;;;-141.85;100.00;63675.41;5056038;28;20250;-69
2021/03/11 04:06:12;;;;;;;24.13;13.63;;;6.10;99.90;;;-141.85;100.00;63675.41;5054196;28;20208;-67
2021/03/11 04:08:44;;;;;;;21.43;13.57;;;6.10;99.90;;;-141.85;100.00;63675.41;5035663;28;20223;-68
2021/03/11 04:11:11;;;;;;;20.80;14.07;;;6.20;99.90;;;-141.85;100.00;63675.41;5035769;28;20567;-68
2021/03/11 04:13:41;;;;;;;20.20;13.53;;;6.30;99.90;;;-141.85;100.00;63675.41;5035915;28;20199;-67
2021/03/11 04:16:09;;;;;;;23.47;13.53;;;6.30;99.90;;;-141.85;100.00;63675.41;5036193;28;20619;-68
2021/03/11 04:18:36;;;;;;;22.37;14.27;;;6.40;99.90;;;-141.85;100.00;63675.41;5036390;28;20299;-68
2021/03/11 04:21:06;;;;;;;19.87;12.90;;;6.30;99.90;;;-141.85;100.00;63675.41;5036064;28;20207;-66
2021/03/11 04:23:35;;;;;;;19.07;13.03;;;6.40;99.90;;;-141.85;100.00;63675.41;5036208;28;20236;-68
2021/03/11 04:26:04;;;;;;;20.17;13.93;;;6.40;99.90;;;-141.85;100.00;63675.41;5036081;28;20292;-68
2021/03/11 04:28:32;;;;;;;22.63;12.40;;;6.50;99.90;;;-141.85;100.00;63675.41;5036030;28;20272;-68
2021/03/11 04:31:00;;;;;;;20.73;13.10;;;6.50;99.90;;;-141.85;100.00;63675.41;5036073;28;20299;-68
2021/03/11 04:33:27;;;;;;;19.33;12.60;;;6.60;99.90;;;-141.85;100.00;63675.41;5036097;28;20233;-68
2021/03/11 04:35:55;;;;;;;20.87;12.83;;;6.60;99.90;;;-141.85;100.00;63675.41;5035642;28;20633;-69
2021/03/11 04:38:24;;;;;;;21.03;12.43;;;6.60;99.90;;;-141.85;100.00;63675.41;5035842;28;20714;-67
2021/03/11 04:40:52;;;;;;;20.83;12.60;;;6.60;99.90;;;-141.85;100.00;63675.41;5035540;28;20685;-68
2021/03/11 04:43:21;;;;;;;19.33;12.53;;;6.60;99.90;;;-141.85;100.00;63675.41;5035696;28;20225;-67
2021/03/11 04:45:49;;;;;;;19.87;12.77;;;6.60;99.90;;;-141.85;100.00;63675.41;5035695;28;20262;-68
2021/03/11 04:48:17;;;;;;;19.43;12.60;;;6.50;99.90;;;-141.85;100.00;63675.41;5035748;28;20197;-67
2021/03/11 04:50:46;;;;;;;20.13;12.53;;;6.50;99.90;;;-141.85;100.00;63675.41;5035338;28;20299;-68
2021/03/11 04:53:13;;;;;;;18.70;11.63;;;6.60;99.90;;;-141.85;100.00;63675.41;5035541;28;20296;-68
2021/03/11 04:55:43;;;;;;;18.97;12.00;;;6.60;99.90;;;-141.85;100.00;63675.41;5035535;28;20208;-67
2021/03/11 04:58:10;;;;;;;18.80;11.50;;;6.70;99.90;;;-141.85;100.00;63675.41;5035607;28;20243;-68
2021/03/11 05:00:42;;;;;;;19.07;12.17;;;6.60;99.90;;;-141.85;100.00;63675.41;5035608;28;20232;-67
2021/03/11 05:03:10;;;;;;;18.50;12.20;;;6.70;99.90;;;-141.85;100.00;63675.41;5035511;28;20213;-68
2021/03/11 05:05:40;;;;;;;17.10;12.00;;;6.60;99.90;;;-141.85;100.00;63675.41;5035540;28;20201;-67
2021/03/11 05:08:09;;;;;;;17.97;11.47;;;6.50;99.90;;;-141.85;100.00;63675.41;5035352;28;20283;-67
2021/03/11 05:10:38;;;;;;;20.03;11.83;;;6.60;99.90;;;-141.85;100.00;63675.41;5032323;28;20209;-59
2021/03/11 05:13:06;;;;;;;18.43;11.53;;;6.50;99.90;;;-141.85;100.00;63675.41;5034709;28;20303;-60
2021/03/11 05:15:33;;;;;;;18.20;12.20;;;6.50;99.90;;;-141.85;100.00;63675.41;5035249;28;20213;-59
2021/03/11 05:18:39;;;;;;;19.00;11.30;;;6.50;99.90;;;-141.85;100.00;63675.41;5035169;28;20209;-61
2021/03/11 05:21:08;;;;;;;17.27;11.37;;;6.50;99.90;;;-141.85;100.00;63675.41;5031641;28;20209;-58
2021/03/11 05:23:54;;;;;;;17.47;10.70;;;6.50;99.90;;;-141.85;100.00;63675.41;5034731;28;20278;-59
2021/03/11 05:26:21;;;;;;;16.40;11.00;;;6.40;99.90;;;-141.85;100.00;63675.41;5034450;28;20295;-59
2021/03/11 05:28:48;;;;;;;17.67;11.23;;;6.40;99.90;;;-141.85;100.00;63675.41;5034383;28;20209;-59
2021/03/11 05:31:15;;;;;;;19.90;11.87;;;6.50;99.90;;;-141.85;100.00;63675.41;5034500;28;20216;-59
2021/03/11 05:33:44;;;;;;;19.27;12.13;;;6.50;99.90;;;-141.85;100.00;63675.41;5034752;28;20205;-59
2021/03/11 05:36:11;;;;;;;18.20;11.03;;;6.40;99.90;;;-141.85;100.00;63675.41;5034324;28;20229;-58
2021/03/11 05:38:38;;;;;;;17.27;11.67;;;6.40;99.90;;;-141.85;100.00;63675.41;5034077;28;20525;-60
2021/03/11 05:41:06;;;;;;;16.83;10.87;;;6.30;99.90;;;-141.85;100.00;63675.41;5034123;28;20629;-58
2021/03/11 05:43:38;;;;;;;17.60;10.67;;;6.20;99.90;;;-141.85;100.00;63675.41;5034198;28;20334;-59
2021/03/11 05:46:07;;;;;;;14.53;10.30;;;6.20;99.90;;;-141.85;100.00;63675.41;5034548;28;20207;-59
2021/03/11 05:48:37;;;;;;;19.30;10.77;;;6.20;99.90;;;-141.85;100.00;63675.41;5034375;28;20212;-58
2021/03/11 05:51:07;;;;;;;16.07;10.80;;;6.20;99.90;;;-141.85;100.00;63675.41;5034694;28;20193;-59
2021/03/11 05:53:36;;;;;;;15.60;10.43;;;6.10;99.90;;;-141.85;100.00;63675.41;5034553;28;20204;-59
2021/03/11 05:56:04;;;;;;;16.33;10.63;;;6.10;99.90;;;-141.85;100.00;63675.41;5033670;28;20204;-59
2021/03/11 05:58:32;;;;;;;15.77;10.77;;;6.10;99.90;;;-141.85;100.00;63675.41;5034215;28;20282;-60
2021/03/11 06:01:01;;;;;;;15.87;10.23;;;6.00;99.90;;;-141.85;100.00;63675.41;5034058;28;20203;-60
2021/03/11 06:03:33;;;;;;;18.03;10.73;;;6.00;99.90;;;-141.85;100.00;63675.41;5034217;28;20321;-59
2021/03/11 06:06:01;;;;;;;19.60;11.10;;;6.00;99.90;;;-141.85;100.00;63675.41;5034348;28;20195;-59
2021/03/11 06:08:31;;;;;;;15.50;10.90;;;5.90;99.90;;;-141.85;100.00;63675.41;5033858;28;20208;-58
2021/03/11 06:11:00;;;;;;;17.00;10.60;;;5.90;99.90;;;-141.85;100.00;63675.41;5033005;28;20302;-59
2021/03/11 06:13:30;;;;;;;18.23;10.50;;;5.90;99.90;;;-141.85;100.00;63675.41;5033931;28;20258;-59
2021/03/11 06:16:03;;;;;;;16.97;10.77;;;6.00;99.90;;;-141.85;100.00;63675.41;5033845;28;20554;-60
2021/03/11 06:18:32;;;;;;;16.27;11.70;;;6.00;99.90;;;-141.85;100.00;63675.41;5033633;28;20196;-58
2021/03/11 06:21:00;;;;;;;16.50;10.53;;;6.00;99.90;;;-141.85;100.00;63675.41;5033778;28;20238;-59
2021/03/11 06:23:29;;;;;;;15.87;10.97;;;6.10;99.90;;;-141.85;100.00;63675.41;5032721;28;20253;-60
2021/03/11 06:25:58;;;;;;;18.20;11.17;;;6.10;99.90;;;-141.85;100.00;63675.41;5033137;28;20204;-59
2021/03/11 06:28:54;;;;;;;16.70;10.47;;;6.10;99.90;;;-141.85;100.00;63675.41;5033091;28;20298;-60
2021/03/11 06:31:24;;;;;;;14.57;9.87;;;6.20;99.90;;;-141.85;100.00;63675.41;5033497;28;20276;-60
2021/03/11 06:33:53;;;;;;;17.40;10.80;;;6.30;99.90;;;-141.85;100.00;63675.41;5033576;28;20549;-59
2021/03/11 06:36:24;;;;;;;14.70;10.00;;;6.40;99.90;;;-141.85;100.00;63675.41;5047570;28;20266;-59
2021/03/11 06:38:57;;;;;;;15.43;10.70;;;6.40;99.90;;;-141.85;100.00;63675.41;5053236;28;20193;-59
2021/03/11 06:41:24;;;;;;;17.20;10.47;;;6.50;99.90;;;-141.85;100.00;63675.41;5053611;28;20233;-59
2021/03/11 06:43:59;;;;;;;14.43;9.93;;;6.60;99.90;;;-141.85;100.00;63675.41;5053925;28;20286;-60
2021/03/11 06:46:28;;;;;;;15.03;9.43;;;6.60;99.90;;;-141.85;100.00;63675.41;5053242;28;20589;-60
2021/03/11 06:49:07;;;;;;;15.63;9.87;;;6.60;99.90;;;-141.85;100.00;63675.41;5052949;28;20204;-59
2021/03/11 06:51:34;;;;;;;15.87;10.70;;;6.60;99.90;;;-141.85;100.00;63675.41;5052952;28;20202;-60
2021/03/11 06:54:03;;;;;;;15.07;10.37;;;6.70;99.90;;;-141.85;100.00;63675.41;5052773;28;20204;-59
2021/03/11 06:56:30;;;;;;;14.97;10.30;;;6.70;99.90;;;-141.85;100.00;63675.41;5052363;28;20578;-58
2021/03/11 06:59:00;;;;;;;17.10;10.27;;;6.70;99.90;;;-141.85;100.00;63675.41;5052333;28;20218;-59
2021/03/11 07:01:29;;;;;;;13.73;9.60;;;6.80;99.90;;;-141.85;100.00;63675.41;5052643;28;20239;-59
2021/03/11 07:03:59;;;;;;;14.53;9.53;;;6.90;99.90;;;-141.85;100.00;63675.41;5038201;28;20220;-60
2021/03/11 07:06:29;;;;;;;12.57;9.60;;;6.90;99.90;;;-141.85;100.00;63675.41;5029121;28;20221;-60
2021/03/11 07:08:58;;;;;;;13.30;9.20;;;7.00;99.90;;;-141.85;100.00;63675.41;5052586;28;20185;-58
2021/03/11 07:11:27;;;;;;;14.07;9.83;;;6.90;99.90;;;-141.85;100.00;63675.41;5038515;28;20240;-59
2021/03/11 07:13:56;;;;;;;13.50;9.43;;;6.90;99.90;;;-141.85;100.00;63675.41;5032659;28;20295;-59
2021/03/11 07:16:25;;;;;;;13.43;9.07;;;7.00;99.90;;;-141.85;100.00;63675.41;5032666;28;20229;-60
2021/03/11 07:19:13;;;;;;;12.53;8.53;;;6.90;99.90;;;-141.85;100.00;63675.41;5032738;28;20217;-59
2021/03/11 07:21:43;;;;;;;12.60;8.53;;;7.00;99.90;;;-141.85;100.00;63675.41;5032494;28;20755;-59
2021/03/11 07:24:11;;;;;;;11.83;8.60;;;7.10;99.90;;;-141.85;100.00;63675.41;5032285;28;20206;-59
2021/03/11 07:26:56;;;;;;;12.03;9.30;;;7.20;99.90;;;-141.85;100.00;63675.41;5032268;28;20201;-58
2021/03/11 07:29:23;;;;;;;10.37;7.43;;;7.20;99.90;;;-141.85;100.00;63675.41;5032561;28;20250;-60
2021/03/11 07:31:55;;;;;;;12.17;7.80;;;7.30;99.90;;;-141.85;100.00;63675.41;5031845;28;20685;-60
2021/03/11 07:34:28;;;;;;;9.57;7.13;;;7.40;99.90;;;-141.85;100.00;63675.41;5030123;28;20295;-59
2021/03/11 07:36:58;;;;;;;12.17;8.07;;;7.40;99.90;;;-141.85;100.00;63675.41;5031790;28;20686;-59
2021/03/11 07:39:27;;;;;;;8.43;6.70;;;7.50;99.90;;;-141.85;100.00;63675.41;5032195;28;20197;-59
2021/03/11 07:42:01;;;;;;;9.80;7.17;;;7.60;99.90;;;-141.85;100.00;63675.41;5032239;28;20244;-60
2021/03/11 07:44:30;;;;;;;9.43;6.43;;;7.70;99.90;;;-141.85;100.00;63675.41;5031852;28;20277;-59
2021/03/11 07:46:58;;;;;;;10.03;6.90;;;7.70;99.90;;;-141.85;100.00;63675.41;5027598;28;20272;-60
2021/03/11 07:49:27;;;;;;;8.73;6.63;;;7.80;99.90;;;-141.85;100.00;63675.41;5002914;28;20675;-59
2021/03/11 07:51:55;;;;;;;9.43;6.53;;;7.90;99.90;;;-141.85;100.00;63675.41;5002418;28;20662;-59
2021/03/11 07:54:23;;;;;;;7.87;6.03;;;7.90;99.90;;;-141.85;100.00;63675.41;5011688;28;20225;-60
2021/03/11 07:56:52;;;;;;;8.93;6.73;;;8.00;99.90;;;-141.85;100.00;63675.41;5011480;28;20699;-60
2021/03/11 07:59:21;;;;;;;10.57;6.93;;;8.00;99.90;;;-141.85;100.00;63675.41;5018487;28;20699;-60
2021/03/11 08:01:52;;;;;;;11.20;6.70;;;8.00;99.90;;;-141.85;100.00;63675.41;5015710;28;20300;-60
2021/03/11 08:04:25;;;;;;;8.57;6.77;;;8.00;99.90;;;-141.85;100.00;63675.41;5013144;28;20206;-60
2021/03/11 08:07:12;;;;;;;8.43;6.57;;;8.00;99.90;;;-141.85;100.00;63675.41;5016558;28;20198;-58
2021/03/11 08:09:39;;;;;;;8.10;6.07;;;8.10;99.90;;;-141.85;100.00;63675.41;5015274;28;20208;-59
2021/03/11 08:12:37;;;;;;;9.43;6.43;;;8.10;99.90;;;-141.85;100.00;63675.41;5018227;28;20281;-59
2021/03/11 08:15:19;;;;;;;11.87;6.90;;;8.20;99.90;;;-141.85;100.00;63675.41;5014943;28;20190;-60
2021/03/11 08:17:48;;;;;;;9.77;6.47;;;8.20;99.90;;;-141.85;100.00;63675.41;5008499;28;20257;-60
2021/03/11 08:20:38;;;;;;;8.87;6.93;;;8.20;99.90;;;-141.85;100.00;63675.41;5007003;28;20412;-60
2021/03/11 08:23:10;;;;;;;10.73;7.10;;;8.20;99.90;;;-141.85;100.00;63675.41;5009377;28;20241;-60
2021/03/11 08:25:48;;;;;;;9.43;6.90;;;8.30;99.90;;;-141.85;100.00;63675.41;5008387;28;20199;-60
2021/03/11 08:28:48;;;;;;;9.03;7.20;;;8.40;99.90;;;-141.85;100.00;63675.41;5005950;28;20301;-60
2021/03/11 08:31:16;;;;;;;9.33;7.30;;;8.40;99.90;;;-141.85;100.00;63675.41;4986376;28;20203;-59
2021/03/11 08:33:51;;;;;;;10.33;7.17;;;8.40;99.90;;;-141.85;100.00;63675.41;5001696;28;20215;-59
2021/03/11 08:36:46;;;;;;;10.33;7.43;;;8.30;99.90;;;-141.85;100.00;63675.41;5022802;28;20324;-59
2021/03/11 08:39:34;;;;;;;9.33;7.00;;;8.20;99.90;;;-141.85;100.00;63675.41;5025069;28;20234;-59
2021/03/11 08:42:52;;;;;;;9.07;7.50;;;8.20;99.90;;;-141.85;100.00;63675.41;5009152;28;20201;-60
2021/03/11 08:45:55;;;;;;;10.27;7.80;;;8.10;99.90;;;-141.85;100.00;63675.41;5009340;28;20257;-60
2021/03/11 08:48:24;;;;;;;9.53;7.20;;;8.20;99.90;;;-141.85;100.00;63675.41;5012612;28;20186;-59
2021/03/11 08:50:53;;;;;;;10.90;8.40;;;8.30;99.90;;;-141.85;100.00;63675.41;5012107;28;20209;-59
2021/03/11 08:53:48;;;;;;;12.00;7.80;;;8.40;99.90;;;-141.85;100.00;63675.41;5028706;28;20289;-60
2021/03/11 08:56:42;;;;;;;10.40;7.37;;;8.50;99.90;;;-141.85;100.00;63675.41;5031687;28;20684;-59
2021/03/11 08:59:12;;;;;;;11.77;7.87;;;8.60;99.90;;;-141.85;100.00;63675.41;5031832;28;20210;-60
2021/03/11 09:01:43;;;;;;;11.20;7.93;;;8.70;99.90;;;-141.85;100.00;63675.41;5032043;28;20273;-62
2021/03/11 09:04:40;;;;;;;10.63;7.87;;;8.80;99.90;;;-141.85;100.00;63675.41;5031446;28;20573;-60
2021/03/11 09:07:27;;;;;;;10.10;7.67;;;8.90;99.90;;;-141.85;100.00;63675.41;5032097;28;20186;-60
2021/03/11 09:09:55;;;;;;;9.60;7.40;;;8.90;99.90;;;-141.85;100.00;63675.41;5031643;28;20188;-59
2021/03/11 09:12:30;;;;;;;10.73;7.80;;;9.00;99.90;;;-141.85;100.00;63675.41;5026694;28;20277;-60
2021/03/11 09:15:00;;;;;;;12.00;8.27;;;9.00;99.90;;;-141.85;100.00;63675.41;5028438;28;20645;-60
2021/03/11 09:17:30;;;;;;;9.53;7.37;;;9.10;99.90;;;-141.85;100.00;63675.41;5031741;28;20601;-58
2021/03/11 09:20:03;;;;;;;10.80;7.50;;;9.10;99.90;;;-141.85;100.00;63675.41;5032066;28;20209;-60
2021/03/11 09:22:32;;;;;;;10.13;7.17;;;9.20;99.90;;;-141.85;100.00;63675.41;5031673;28;20224;-59
2021/03/11 09:25:11;;;;;;;8.40;7.13;;;9.10;99.90;;;-141.85;100.00;63675.41;5031305;28;20218;-60
2021/03/11 09:27:41;;;;;;;8.70;7.73;;;9.20;99.90;;;-141.85;100.00;63675.41;5030556;28;20206;-60
2021/03/11 09:30:26;;;;;;;11.10;7.97;;;9.20;99.90;;;-141.85;100.00;63675.41;5031500;28;20197;-61
2021/03/11 09:32:54;;;;;;;10.27;7.60;;;9.20;99.90;;;-141.85;100.00;63675.41;5031355;28;20187;-60
2021/03/11 09:35:26;;;;;;;10.70;7.63;;;9.10;99.90;;;-141.85;100.00;63675.41;5031014;28;20270;-60
2021/03/11 09:38:00;;;;;;;13.43;7.97;;;9.10;99.90;;;-141.85;100.00;63675.41;5030607;28;20190;-60
2021/03/11 09:40:32;;;;;;;10.23;7.60;;;9.10;99.90;;;-141.85;100.00;63675.41;5030799;28;20194;-60
2021/03/11 09:43:11;;;;;;;9.57;6.83;;;8.90;99.90;;;-141.85;100.00;63675.41;5030875;28;20191;-61
2021/03/11 09:45:42;;;;;;;9.73;7.57;;;8.70;99.90;;;-141.85;100.00;63675.41;5031082;28;20186;-60
2021/03/11 09:48:14;;;;;;;9.50;7.70;;;8.60;99.90;;;-141.85;100.00;63675.41;5030343;28;20240;-59
2021/03/11 09:51:04;;;;;;;11.43;8.00;;;8.40;99.90;;;-141.85;100.00;63675.41;5024651;28;20230;-61
2021/03/11 09:53:35;;;;;;;10.73;7.53;;;8.40;99.90;;;-141.85;100.00;63675.41;5016048;28;20206;-60
2021/03/11 09:56:05;;;;;;;11.27;8.10;;;8.30;99.90;;;-141.85;100.00;63675.41;5014088;28;20183;-59
2021/03/11 09:58:32;;;;;;;11.20;7.93;;;8.30;99.90;;;-141.85;100.00;63675.41;5030801;28;20285;-59
2021/03/11 10:01:02;;;;;;;9.53;7.07;;;8.40;99.90;;;-141.85;100.00;63675.41;5030547;28;20220;-60
2021/03/11 10:03:31;;;;;;;8.80;7.17;;;8.40;99.90;;;-141.85;100.00;63675.41;5029352;28;20677;-60
2021/03/11 10:06:02;;;;;;;11.27;7.63;;;8.50;99.90;;;-141.85;100.00;63675.41;5030704;28;20252;-60
2021/03/11 10:08:37;;;;;;;9.63;7.63;;;8.60;99.90;;;-141.85;100.00;63675.41;5030411;28;20264;-61
2021/03/11 10:11:11;;;;;;;11.77;7.67;;;8.60;99.90;;;-141.85;100.00;63675.41;5030368;28;20221;-61
2021/03/11 10:13:49;;;;;;;9.37;7.50;;;8.60;99.90;;;-141.85;100.00;63675.41;5029959;28;20193;-61